createdAt,value
2023-11-21T00:00:57.382Z,23.60
2023-11-21T00:03:39.751Z,24.30
2023-11-21T00:06:10.533Z,22.10
2023-11-21T00:08:38.299Z,17.70
2023-11-21T00:11:09.342Z,27.90
2023-11-21T00:13:37.024Z,18.70
2023-11-21T00:16:05.458Z,23.50
2023-11-21T00:18:33.212Z,19.50
2023-11-21T00:21:00.880Z,23.20
2023-11-21T00:23:28.522Z,26.40
2023-11-21T00:25:56.190Z,26.30
2023-11-21T00:28:24.010Z,22.80
2023-11-21T00:30:51.670Z,27.30
2023-11-21T00:33:19.581Z,31.00
2023-11-21T00:35:47.728Z,25.50
2023-11-21T00:38:15.368Z,27.60
2023-11-21T00:40:43.181Z,26.40
2023-11-21T00:43:10.939Z,30.30
2023-11-21T00:45:38.652Z,27.90
2023-11-21T00:48:06.344Z,26.60
2023-11-21T00:50:34.178Z,27.50
2023-11-21T00:53:03.098Z,26.70
2023-11-21T00:55:31.052Z,26.50
2023-11-21T00:57:59.635Z,35.00
2023-11-21T01:00:27.337Z,28.30
2023-11-21T01:02:55.116Z,33.90
2023-11-21T01:05:22.899Z,31.70
2023-11-21T01:07:50.708Z,21.30
2023-11-21T01:10:18.603Z,25.20
2023-11-21T01:12:46.595Z,29.70
2023-11-21T01:15:14.278Z,28.10
2023-11-21T01:17:42.297Z,29.50
2023-11-21T01:20:14.541Z,24.90
2023-11-21T01:22:43.281Z,27.80
2023-11-21T01:25:11.881Z,24.70
2023-11-21T01:27:39.806Z,28.10
2023-11-21T01:30:09.138Z,32.00
2023-11-21T01:32:41.189Z,26.60
2023-11-21T01:35:10.875Z,25.30
2023-11-21T01:37:39.241Z,26.00
2023-11-21T01:40:11.133Z,23.60
2023-11-21T01:42:38.948Z,27.60
2023-11-21T01:45:07.429Z,28.10
2023-11-21T01:47:37.024Z,25.50
2023-11-21T01:50:06.897Z,18.60
2023-11-21T01:52:36.449Z,25.50
2023-11-21T01:55:07.505Z,25.30
2023-11-21T01:57:36.297Z,27.80
2023-11-21T02:00:22.718Z,24.30
2023-11-21T02:02:50.610Z,24.40
2023-11-21T02:05:19.715Z,29.70
2023-11-21T02:07:51.324Z,24.90
2023-11-21T02:10:23.805Z,23.30
2023-11-21T02:12:52.208Z,25.60
2023-11-21T02:15:24.256Z,28.80
2023-11-21T02:20:26.190Z,21.90
2023-11-21T02:23:01.880Z,27.00
2023-11-21T02:25:32.973Z,24.90
2023-11-21T02:28:02.980Z,26.60
2023-11-21T02:30:33.148Z,22.10
2023-11-21T02:33:02.312Z,23.60
2023-11-21T02:35:32.738Z,21.90
2023-11-21T02:38:01.129Z,22.80
2023-11-21T02:40:28.943Z,24.80
2023-11-21T02:42:58.940Z,26.80
2023-11-21T02:45:27.050Z,25.50
2023-11-21T02:47:56.304Z,26.10
2023-11-21T02:50:24.272Z,25.00
2023-11-21T02:52:52.469Z,22.40
2023-11-21T02:55:20.340Z,24.10
2023-11-21T02:57:48.019Z,23.50
2023-11-21T03:00:16.389Z,26.90
2023-11-21T03:02:44.879Z,29.40
2023-11-21T03:05:12.838Z,22.40
2023-11-21T03:07:41.150Z,22.40
2023-11-21T03:10:10.649Z,27.40
2023-11-21T03:12:39.483Z,28.10
2023-11-21T03:15:08.006Z,26.90
2023-11-21T03:17:35.955Z,19.00
2023-11-21T03:20:05.254Z,23.30
2023-11-21T03:22:33.258Z,24.80
2023-11-21T03:25:01.281Z,30.00
2023-11-21T03:27:28.994Z,25.00
2023-11-21T03:29:56.786Z,25.10
2023-11-21T03:32:24.883Z,29.80
2023-11-21T03:34:57.713Z,24.50
2023-11-21T03:37:26.149Z,20.30
2023-11-21T03:39:54.028Z,22.10
2023-11-21T03:42:21.713Z,22.70
2023-11-21T03:44:49.345Z,24.60
2023-11-21T03:47:17.107Z,24.50
2023-11-21T03:49:44.933Z,28.10
2023-11-21T03:52:12.853Z,19.70
2023-11-21T03:54:40.486Z,25.00
2023-11-21T03:57:08.558Z,27.90
2023-11-21T03:59:36.308Z,27.30
2023-11-21T04:02:04.267Z,23.90
2023-11-21T04:04:31.991Z,22.50
2023-11-21T04:06:59.741Z,19.60
2023-11-21T04:09:27.721Z,15.00
2023-11-21T04:11:56.722Z,18.70
2023-11-21T04:14:25.361Z,17.50
2023-11-21T04:16:53.209Z,22.00
2023-11-21T04:19:21.730Z,18.80
2023-11-21T04:21:49.631Z,18.00
2023-11-21T04:24:17.303Z,20.70
2023-11-21T04:26:45.707Z,20.80
2023-11-21T04:29:13.487Z,22.80
2023-11-21T04:31:41.233Z,19.60
2023-11-21T04:34:09.248Z,20.30
2023-11-21T04:36:37.036Z,17.60
2023-11-21T04:39:04.827Z,15.80
2023-11-21T04:41:33.014Z,18.60
2023-11-21T04:44:03.614Z,18.40
2023-11-21T04:46:31.359Z,15.80
2023-11-21T04:48:59.907Z,15.60
2023-11-21T04:51:28.433Z,17.00
2023-11-21T04:53:56.104Z,19.10
2023-11-21T04:56:23.790Z,20.20
2023-11-21T04:58:51.736Z,14.00
2023-11-21T05:01:19.526Z,13.70
2023-11-21T05:03:48.363Z,13.80
2023-11-21T05:06:16.119Z,16.10
2023-11-21T05:08:43.894Z,14.00
2023-11-21T05:11:11.921Z,14.80
2023-11-21T05:13:40.243Z,13.80
2023-11-21T05:16:08.457Z,10.90
2023-11-21T05:18:36.264Z,14.50
2023-11-21T05:21:04.117Z,16.00
2023-11-21T05:23:31.816Z,15.30
2023-11-21T05:25:59.537Z,13.50
2023-11-21T05:28:27.257Z,13.10
2023-11-21T05:31:07.544Z,15.00
2023-11-21T05:33:42.353Z,16.60
2023-11-21T05:36:11.146Z,14.00
2023-11-21T05:38:38.998Z,16.50
2023-11-21T05:41:07.529Z,13.80
2023-11-21T05:43:36.935Z,15.60
2023-11-21T05:46:04.962Z,17.90
2023-11-21T05:48:32.855Z,15.30
2023-11-21T05:51:00.593Z,13.30
2023-11-21T05:53:28.375Z,16.70
2023-11-21T05:55:56.044Z,14.50
2023-11-21T05:58:24.122Z,16.40
2023-11-21T06:00:52.232Z,17.30
2023-11-21T06:03:20.017Z,10.80
2023-11-21T06:05:47.821Z,11.20
2023-11-21T06:08:17.950Z,18.60
2023-11-21T06:13:54.614Z,12.60
2023-11-21T06:16:22.627Z,15.30
2023-11-21T06:18:50.607Z,13.90
2023-11-21T06:21:19.663Z,8.40
2023-11-21T06:23:47.462Z,14.60
2023-11-21T06:26:15.509Z,17.30
2023-11-21T06:28:43.202Z,17.10
2023-11-21T06:31:11.983Z,13.30
2023-11-21T06:33:39.712Z,9.40
2023-11-21T06:36:08.174Z,16.50
2023-11-21T06:38:35.816Z,21.00
2023-11-21T06:41:04.549Z,14.30
2023-11-21T06:43:35.199Z,14.70
2023-11-21T06:46:02.953Z,13.50
2023-11-21T06:48:31.337Z,17.90
2023-11-21T06:50:59.171Z,20.00
2023-11-21T06:53:26.904Z,22.80
2023-11-21T06:55:54.579Z,17.20
2023-11-21T06:58:22.371Z,23.40
2023-11-21T07:00:52.632Z,20.80
2023-11-21T07:03:21.505Z,19.20
2023-11-21T07:05:49.361Z,19.60
2023-11-21T07:08:17.125Z,19.50
2023-11-21T07:10:44.966Z,20.90
2023-11-21T07:13:13.708Z,19.60
2023-11-21T07:15:42.045Z,15.70
2023-11-21T07:18:09.907Z,17.60
2023-11-21T07:20:37.648Z,15.40
2023-11-21T07:23:05.492Z,15.10
2023-11-21T07:25:34.814Z,20.60
2023-11-21T07:28:02.729Z,16.20
2023-11-21T07:30:30.392Z,21.30
2023-11-21T07:32:58.084Z,16.40
2023-11-21T07:35:25.781Z,21.50
2023-11-21T07:37:53.620Z,21.90
2023-11-21T07:40:21.468Z,19.30
2023-11-21T07:42:49.916Z,20.90
2023-11-21T07:45:18.045Z,20.20
2023-11-21T07:47:45.860Z,15.30
2023-11-21T07:50:14.960Z,18.50
2023-11-21T07:52:43.050Z,18.90
2023-11-21T07:55:11.263Z,20.20
2023-11-21T07:57:38.962Z,18.80
2023-11-21T08:00:10.479Z,14.20
2023-11-21T08:02:43.634Z,19.10
2023-11-21T08:05:18.418Z,16.20
2023-11-21T08:07:52.910Z,18.00
2023-11-21T08:10:22.495Z,21.00
2023-11-21T08:12:51.786Z,22.00
2023-11-21T08:15:19.572Z,15.40
2023-11-21T08:17:48.391Z,16.70
2023-11-21T08:22:45.687Z,18.20
2023-11-21T08:25:13.778Z,15.30
2023-11-21T08:27:41.571Z,24.20
2023-11-21T08:30:09.814Z,16.10
2023-11-21T08:32:37.492Z,20.70
2023-11-21T08:35:06.773Z,21.90
2023-11-21T08:37:38.312Z,23.30
2023-11-21T08:40:10.619Z,15.90
2023-11-21T08:42:38.634Z,20.60
2023-11-21T08:45:10.140Z,21.00
2023-11-21T08:47:37.912Z,18.60
2023-11-21T08:50:09.048Z,16.50
2023-11-21T08:52:38.330Z,21.80
2023-11-21T08:55:09.327Z,22.90
2023-11-21T08:57:37.778Z,25.20
2023-11-21T09:00:18.377Z,17.50
2023-11-21T09:02:46.991Z,19.60
2023-11-21T09:05:15.915Z,19.60
2023-11-21T09:07:44.088Z,24.30
2023-11-21T09:10:12.216Z,24.50
2023-11-21T09:12:40.061Z,24.00
2023-11-21T09:15:11.057Z,19.20
2023-11-21T09:17:39.722Z,25.40
2023-11-21T09:20:11.509Z,19.70
2023-11-21T09:22:39.688Z,26.70
2023-11-21T09:25:09.874Z,20.00
2023-11-21T09:27:37.968Z,23.60
2023-11-21T09:30:06.954Z,19.10
2023-11-21T09:32:36.335Z,21.00
2023-11-21T09:35:05.953Z,23.70
2023-11-21T09:37:33.741Z,18.80
2023-11-21T09:40:02.850Z,19.70
2023-11-21T09:42:40.440Z,24.60
2023-11-21T09:45:40.759Z,23.60
2023-11-21T09:48:10.408Z,20.00
2023-11-21T09:50:38.963Z,19.10
2023-11-21T09:53:21.797Z,21.40
2023-11-21T09:55:52.450Z,22.70
2023-11-21T09:58:23.184Z,23.50
2023-11-21T10:00:54.552Z,27.00
2023-11-21T10:03:22.385Z,18.10
2023-11-21T10:05:54.014Z,22.90
2023-11-21T10:08:25.442Z,19.60
2023-11-21T10:10:55.529Z,20.50
2023-11-21T10:13:23.310Z,19.40
2023-11-21T10:15:54.451Z,22.90
2023-11-21T10:18:26.046Z,21.50
2023-11-21T10:20:55.466Z,21.50
2023-11-21T10:23:24.464Z,21.40
2023-11-21T10:25:57.150Z,23.70
2023-11-21T10:28:26.391Z,24.50
2023-11-21T10:30:54.127Z,19.50
2023-11-21T10:33:30.197Z,22.90
2023-11-21T10:35:58.134Z,22.80
2023-11-21T10:38:28.427Z,20.80
2023-11-21T10:40:56.192Z,18.10
2023-11-21T10:43:27.515Z,24.00
2023-11-21T10:46:00.218Z,19.90
2023-11-21T10:48:28.257Z,24.00
2023-11-21T10:50:57.751Z,20.80
2023-11-21T10:53:29.952Z,23.70
2023-11-21T10:56:18.563Z,27.00
2023-11-21T10:58:47.035Z,24.30
2023-11-21T11:01:17.876Z,21.90
2023-11-21T11:03:46.185Z,20.20
2023-11-21T11:06:14.624Z,20.10
2023-11-21T11:08:42.343Z,21.80
2023-11-21T11:11:11.436Z,19.30
2023-11-21T11:13:40.195Z,22.80
2023-11-21T11:16:11.647Z,20.00
2023-11-21T11:18:39.587Z,22.30
2023-11-21T11:21:27.470Z,20.40
2023-11-21T11:23:57.927Z,19.50
2023-11-21T11:26:53.322Z,23.40
2023-11-21T11:29:29.229Z,21.20
2023-11-21T11:32:24.991Z,19.80
2023-11-21T11:35:08.752Z,22.90
2023-11-21T11:37:36.689Z,16.90
2023-11-21T11:40:07.979Z,25.70
2023-11-21T11:42:35.699Z,28.30
2023-11-21T11:45:18.829Z,21.70
2023-11-21T11:47:49.109Z,22.00
2023-11-21T11:50:18.864Z,19.50
2023-11-21T11:52:52.986Z,19.10
2023-11-21T11:55:22.466Z,18.30
2023-11-21T11:57:54.348Z,20.80
2023-11-21T12:00:26.027Z,22.50
2023-11-21T12:03:03.486Z,20.80
2023-11-21T12:05:36.595Z,22.80
2023-11-21T12:08:05.064Z,18.20
2023-11-21T12:10:34.788Z,20.40
2023-11-21T12:13:08.723Z,17.50
2023-11-21T12:15:38.615Z,20.40
2023-11-21T12:18:06.905Z,21.80
2023-11-21T12:20:40.117Z,18.00
2023-11-21T12:23:10.542Z,21.60
2023-11-21T12:25:43.472Z,22.30
2023-11-21T12:28:12.892Z,20.70
2023-11-21T12:30:40.993Z,19.00
2023-11-21T12:33:10.975Z,15.60
2023-11-21T12:35:39.185Z,21.10
2023-11-21T12:38:07.124Z,18.60
2023-11-21T12:40:35.537Z,20.30
2023-11-21T12:43:05.239Z,22.60
2023-11-21T12:45:33.285Z,23.10
2023-11-21T12:48:04.694Z,21.30
2023-11-21T12:50:34.776Z,18.90
2023-11-21T12:53:07.263Z,23.80
2023-11-21T12:55:39.285Z,21.80
2023-11-21T12:58:12.793Z,25.30
2023-11-21T13:00:45.923Z,21.20
2023-11-21T13:03:20.997Z,23.00
2023-11-21T13:05:52.793Z,26.20
2023-11-21T13:10:56.117Z,20.80
2023-11-21T13:13:25.925Z,20.30
2023-11-21T13:15:57.616Z,14.80
2023-11-21T13:18:29.626Z,17.40
2023-11-21T13:20:59.821Z,21.50
2023-11-21T13:23:28.053Z,25.40
2023-11-21T13:26:02.671Z,17.50
2023-11-21T13:28:35.511Z,19.90
2023-11-21T13:31:11.972Z,20.70
2023-11-21T13:33:42.217Z,23.90
2023-11-21T13:36:11.062Z,22.90
2023-11-21T13:38:43.950Z,21.20
2023-11-21T13:41:14.995Z,23.00
2023-11-21T13:43:47.065Z,18.30
2023-11-21T13:48:52.489Z,19.20
2023-11-21T13:51:21.620Z,23.90
2023-11-21T13:53:52.216Z,21.60
2023-11-21T13:56:29.167Z,21.70
2023-11-21T13:58:57.275Z,21.30
2023-11-21T14:01:25.946Z,16.90
2023-11-21T14:03:59.130Z,22.60
2023-11-21T14:06:33.866Z,24.10
2023-11-21T14:09:06.315Z,19.60
2023-11-21T14:11:39.677Z,22.50
2023-11-21T14:14:12.328Z,18.10
2023-11-21T14:16:40.070Z,23.60
2023-11-21T14:19:15.006Z,21.10
2023-11-21T14:21:44.632Z,28.30
2023-11-21T14:24:18.566Z,25.10
2023-11-21T14:26:47.833Z,22.20
2023-11-21T14:29:21.223Z,23.60
2023-11-21T14:31:49.355Z,22.80
2023-11-21T14:34:20.395Z,24.60
2023-11-21T14:36:52.983Z,22.20
2023-11-21T14:39:29.736Z,19.70
2023-11-21T14:41:59.169Z,25.10
2023-11-21T14:44:33.903Z,23.70
2023-11-21T14:47:06.844Z,17.50
2023-11-21T14:49:50.863Z,27.30
2023-11-21T14:52:33.770Z,23.10
2023-11-21T14:55:21.322Z,27.30
2023-11-21T14:57:52.246Z,23.20
2023-11-21T15:00:37.170Z,22.30
2023-11-21T15:03:06.365Z,26.00
2023-11-21T15:05:36.483Z,28.40
2023-11-21T15:08:27.453Z,23.40
2023-11-21T15:10:55.906Z,23.70
2023-11-21T15:13:28.603Z,21.50
2023-11-21T15:15:56.387Z,18.50
2023-11-21T15:18:25.588Z,24.00
2023-11-21T15:20:53.441Z,24.30
2023-11-21T15:23:21.173Z,25.30
2023-11-21T15:25:48.904Z,25.20
2023-11-21T15:28:18.537Z,25.90
2023-11-21T15:30:50.593Z,23.20
2023-11-21T15:33:18.757Z,22.60
2023-11-21T15:35:46.501Z,26.20
2023-11-21T15:38:15.090Z,25.80
2023-11-21T15:40:44.458Z,28.30
2023-11-21T15:43:13.211Z,25.20
2023-11-21T15:45:41.291Z,27.20
2023-11-21T15:48:10.945Z,20.10
2023-11-21T15:50:38.722Z,23.30
2023-11-21T15:53:06.472Z,21.80
2023-11-21T15:55:37.229Z,24.70
2023-11-21T15:58:05.906Z,22.20
2023-11-21T16:00:33.662Z,22.50
2023-11-21T16:03:01.494Z,24.60
2023-11-21T16:05:29.383Z,19.20
2023-11-21T16:07:57.097Z,23.20
2023-11-21T16:10:24.882Z,24.10
2023-11-21T16:12:52.681Z,26.30
2023-11-21T16:15:20.988Z,20.10
2023-11-21T16:17:48.693Z,22.70
2023-11-21T16:20:16.970Z,25.20
2023-11-21T16:22:46.362Z,26.80
2023-11-21T16:25:15.077Z,24.40
2023-11-21T16:27:44.420Z,29.30
2023-11-21T16:30:13.086Z,20.30
2023-11-21T16:32:41.101Z,20.90
2023-11-21T16:35:11.116Z,19.80
2023-11-21T16:37:38.905Z,22.60
2023-11-21T16:40:09.775Z,21.90
2023-11-21T16:42:39.477Z,21.20
2023-11-21T16:45:09.216Z,17.10
2023-11-21T16:47:39.031Z,23.70
2023-11-21T16:50:07.325Z,25.70
2023-11-21T16:52:35.283Z,26.00
2023-11-21T16:55:03.040Z,22.00
2023-11-21T16:57:31.381Z,20.40
2023-11-21T16:59:59.902Z,23.00
2023-11-21T17:02:27.704Z,27.20
2023-11-21T17:04:55.633Z,29.60
2023-11-21T17:07:24.037Z,20.00
2023-11-21T17:09:51.952Z,19.70
2023-11-21T17:12:20.033Z,18.80
2023-11-21T17:14:50.128Z,22.40
2023-11-21T17:17:18.300Z,22.00
2023-11-21T17:19:46.229Z,27.80
2023-11-21T17:22:14.079Z,21.60
2023-11-21T17:24:43.700Z,20.20
2023-11-21T17:27:11.733Z,20.50
2023-11-21T17:29:39.950Z,18.90
2023-11-21T17:32:07.756Z,19.00
2023-11-21T17:34:35.591Z,21.20
2023-11-21T17:37:03.990Z,17.40
2023-11-21T17:39:31.752Z,13.20
2023-11-21T17:41:59.511Z,19.60
2023-11-21T17:44:27.282Z,15.80
2023-11-21T17:46:54.992Z,22.60
2023-11-21T17:49:22.834Z,18.80
2023-11-21T17:51:50.894Z,18.80
2023-11-21T17:54:18.934Z,19.20
2023-11-21T17:56:47.921Z,20.70
2023-11-21T17:59:17.455Z,18.70
2023-11-21T18:01:47.717Z,14.20
2023-11-21T18:04:15.712Z,18.40
2023-11-21T18:06:43.873Z,18.40
2023-11-21T18:09:11.978Z,19.70
2023-11-21T18:11:39.857Z,16.40
2023-11-21T18:14:11.153Z,13.20
2023-11-21T18:16:39.589Z,20.00
2023-11-21T18:19:07.484Z,15.80
2023-11-21T18:21:38.869Z,16.70
2023-11-21T18:24:08.508Z,16.10
2023-11-21T18:26:36.380Z,17.00
2023-11-21T18:29:04.297Z,18.60
2023-11-21T18:31:32.172Z,19.40
2023-11-21T18:34:00.434Z,17.00
2023-11-21T18:36:28.707Z,19.90
2023-11-21T18:38:56.458Z,14.80
2023-11-21T18:41:24.837Z,19.50
2023-11-21T18:43:53.456Z,16.30
2023-11-21T18:46:21.536Z,17.40
2023-11-21T18:48:50.483Z,20.00
2023-11-21T18:51:18.192Z,15.20
2023-11-21T18:53:45.905Z,15.70
2023-11-21T18:56:22.552Z,16.90
2023-11-21T18:58:51.315Z,19.10
2023-11-21T19:01:29.906Z,16.50
2023-11-21T19:04:01.742Z,17.70
2023-11-21T19:06:30.225Z,15.80
2023-11-21T19:08:58.189Z,14.10
2023-11-21T19:11:26.216Z,13.60
2023-11-21T19:13:54.952Z,14.30
2023-11-21T19:16:22.728Z,14.20
2023-11-21T19:18:50.945Z,15.30
2023-11-21T19:21:20.239Z,15.90
2023-11-21T19:23:48.210Z,12.30
2023-11-21T19:26:16.822Z,13.70
2023-11-21T19:28:45.275Z,16.30
2023-11-21T19:31:20.269Z,12.80
2023-11-21T19:33:49.064Z,13.20
2023-11-21T19:36:17.363Z,15.20
2023-11-21T19:38:46.101Z,14.00
2023-11-21T19:41:21.646Z,15.80
2023-11-21T19:43:52.252Z,9.40
2023-11-21T19:46:21.842Z,11.00
2023-11-21T19:48:53.643Z,14.40
2023-11-21T19:51:22.958Z,17.60
2023-11-21T19:53:51.151Z,15.40
2023-11-21T19:56:18.972Z,13.50
2023-11-21T19:58:46.790Z,12.60
2023-11-21T20:01:15.980Z,14.10
2023-11-21T20:03:43.794Z,13.40
2023-11-21T20:06:11.537Z,14.80
2023-11-21T20:08:39.267Z,13.60
2023-11-21T20:11:08.140Z,12.10
2023-11-21T20:13:36.407Z,13.20
2023-11-21T20:16:06.338Z,10.30
2023-11-21T20:18:34.137Z,15.00
2023-11-21T20:21:01.892Z,12.40
2023-11-21T20:23:32.762Z,18.20
2023-11-21T20:26:02.029Z,14.70
2023-11-21T20:28:30.369Z,15.30
2023-11-21T20:30:58.583Z,12.10
2023-11-21T20:33:26.441Z,14.40
2023-11-21T20:35:54.217Z,15.50
2023-11-21T20:38:23.608Z,16.50
2023-11-21T20:40:51.430Z,16.70
2023-11-21T20:43:19.143Z,13.40
2023-11-21T20:45:47.014Z,18.80
2023-11-21T20:48:15.115Z,14.70
2023-11-21T20:50:44.370Z,10.60
2023-11-21T20:53:12.408Z,14.90
2023-11-21T20:55:41.208Z,14.80
2023-11-21T20:58:09.672Z,13.50
2023-11-21T21:00:37.388Z,13.80
2023-11-21T21:03:07.765Z,15.10
2023-11-21T21:05:39.001Z,18.60
2023-11-21T21:08:08.513Z,14.00
2023-11-21T21:10:36.354Z,13.80
2023-11-21T21:13:04.105Z,15.90
2023-11-21T21:15:31.932Z,13.50
2023-11-21T21:18:02.124Z,18.50
2023-11-21T21:20:31.573Z,13.70
2023-11-21T21:23:00.932Z,17.40
2023-11-21T21:25:28.697Z,9.80
2023-11-21T21:27:56.538Z,13.40
2023-11-21T21:30:28.674Z,14.00
2023-11-21T21:35:30.062Z,12.30
2023-11-21T21:37:58.166Z,12.60
2023-11-21T21:40:30.452Z,12.60
2023-11-21T21:43:02.302Z,9.90
2023-11-21T21:45:30.211Z,12.80
2023-11-21T21:47:58.250Z,13.90
2023-11-21T21:50:26.881Z,12.20
2023-11-21T21:52:58.496Z,11.20
2023-11-21T21:55:31.783Z,11.80
2023-11-21T21:57:59.709Z,12.10
2023-11-21T22:00:28.726Z,12.90
2023-11-21T22:02:57.304Z,10.90
2023-11-21T22:05:25.573Z,11.30
2023-11-21T22:07:53.331Z,11.20
2023-11-21T22:10:21.055Z,11.50
2023-11-21T22:12:48.714Z,9.20
2023-11-21T22:15:16.542Z,10.60
2023-11-21T22:17:44.325Z,12.60
2023-11-21T22:20:12.309Z,10.40
2023-11-21T22:22:41.013Z,10.50
2023-11-21T22:25:09.628Z,9.00
2023-11-21T22:27:37.353Z,12.00
2023-11-21T22:30:06.653Z,10.00
2023-11-21T22:32:34.351Z,12.30
2023-11-21T22:35:02.234Z,8.30
2023-11-21T22:37:30.050Z,8.40
2023-11-21T22:39:57.788Z,11.50
2023-11-21T22:42:25.434Z,10.60
2023-11-21T22:44:53.521Z,7.20
2023-11-21T22:47:22.841Z,12.40
2023-11-21T22:49:50.725Z,10.30
2023-11-21T22:52:18.488Z,12.70
2023-11-21T22:54:46.222Z,10.90
2023-11-21T22:57:14.038Z,10.90
2023-11-21T22:59:41.801Z,8.60
2023-11-21T23:02:09.549Z,12.30
2023-11-21T23:04:37.652Z,9.60
2023-11-21T23:07:05.685Z,11.20
2023-11-21T23:09:33.584Z,10.40
2023-11-21T23:12:01.392Z,14.00
2023-11-21T23:14:29.337Z,8.30
2023-11-21T23:16:59.145Z,10.00
2023-11-21T23:19:27.107Z,9.50
2023-11-21T23:21:54.954Z,12.50
2023-11-21T23:24:23.793Z,12.20
2023-11-21T23:26:51.517Z,9.50
2023-11-21T23:29:19.377Z,11.40
2023-11-21T23:31:47.203Z,9.00
2023-11-21T23:34:15.526Z,8.60
2023-11-21T23:36:43.374Z,9.00
2023-11-21T23:39:11.143Z,7.60
2023-11-21T23:41:38.867Z,11.30
2023-11-21T23:44:06.709Z,7.60
2023-11-21T23:46:37.558Z,9.90
2023-11-21T23:49:06.119Z,8.00
2023-11-21T23:51:33.899Z,5.70
2023-11-21T23:54:01.865Z,8.30
2023-11-21T23:56:29.549Z,11.70
2023-11-21T23:58:57.772Z,10.00
